createdAt,value
2023-03-22T00:01:24.163Z,100824.16
2023-03-22T00:03:52.518Z,100812.13
2023-03-22T00:06:19.866Z,100818.19
2023-03-22T00:08:50.688Z,100807.75
2023-03-22T00:11:19.471Z,100803.41
2023-03-22T00:13:47.094Z,100785.09
2023-03-22T00:16:15.214Z,100812.13
2023-03-22T00:18:42.501Z,100800.84
2023-03-22T00:21:14.912Z,100793.91
2023-03-22T00:23:42.718Z,100799.91
2023-03-22T00:26:11.022Z,100793.81
2023-03-22T00:28:38.248Z,100777.34
2023-03-22T00:31:06.355Z,100777.31
2023-03-22T00:33:36.292Z,100781.69
2023-03-22T00:36:08.854Z,100773.94
2023-03-22T00:38:44.112Z,100778.25
2023-03-22T00:41:16.236Z,100780.72
2023-03-22T00:43:43.952Z,100784.16
2023-03-22T00:46:12.207Z,100779.81
2023-03-22T00:48:39.387Z,100763.38
2023-03-22T00:51:07.160Z,100758.94
2023-03-22T00:53:36.383Z,100768.38
2023-03-22T00:56:05.540Z,100771.66
2023-03-22T00:58:32.980Z,100767.22
2023-03-22T01:01:01.006Z,100762.13
2023-03-22T01:03:28.179Z,100759.47
2023-03-22T01:05:57.840Z,100755.22
2023-03-22T01:08:25.390Z,100750.81
2023-03-22T01:10:52.496Z,100741.34
2023-03-22T01:13:19.602Z,100741.47
2023-03-22T01:15:50.843Z,100731.84
2023-03-22T01:18:18.527Z,100724.81
2023-03-22T01:20:45.597Z,100724.81
2023-03-22T01:23:12.655Z,100720.38
2023-03-22T01:25:39.825Z,100723.84
2023-03-22T01:28:07.740Z,100715.19
2023-03-22T01:30:34.878Z,100697.84
2023-03-22T01:33:02.208Z,100703.09
2023-03-22T01:35:30.890Z,100700.56
2023-03-22T01:37:57.926Z,100694.50
2023-03-22T01:40:27.120Z,100698.03
2023-03-22T01:42:55.218Z,100687.69
2023-03-22T01:45:36.873Z,100686.81
2023-03-22T01:48:29.636Z,100675.53
2023-03-22T01:51:25.135Z,100668.72
2023-03-22T01:54:07.018Z,100669.72
2023-03-22T01:56:37.022Z,100661.91
2023-03-22T01:59:04.890Z,100666.31
2023-03-22T02:01:34.131Z,100659.41
2023-03-22T02:04:15.537Z,100640.31
2023-03-22T02:06:42.837Z,100637.84
2023-03-22T02:09:12.474Z,100635.16
2023-03-22T02:11:48.814Z,100621.38
2023-03-22T02:14:43.268Z,100630.06
2023-03-22T02:17:37.960Z,100618.94
2023-03-22T02:20:42.201Z,100623.31
2023-03-22T02:23:21.151Z,100611.19
2023-03-22T02:26:06.941Z,100616.41
2023-03-22T02:28:43.126Z,100610.34
2023-03-22T02:31:37.724Z,100604.31
2023-03-22T02:34:51.119Z,100599.91
2023-03-22T02:37:45.891Z,100593.94
2023-03-22T02:40:44.361Z,100580.09
2023-03-22T02:43:17.069Z,100582.75
2023-03-22T02:46:05.975Z,100588.81
2023-03-22T02:48:51.358Z,100579.41
2023-03-22T02:51:25.703Z,100559.53
2023-03-22T02:53:57.894Z,100573.34
2023-03-22T02:56:31.782Z,100557.13
2023-03-22T02:59:04.088Z,100552.91
2023-03-22T03:01:40.738Z,100545.03
2023-03-22T03:04:15.965Z,100548.53
2023-03-22T03:06:47.095Z,100551.22
2023-03-22T03:09:20.687Z,100552.97
2023-03-22T03:11:50.698Z,100546.97
2023-03-22T03:14:21.245Z,100543.47
2023-03-22T03:17:13.138Z,100544.38
2023-03-22T03:19:46.335Z,100549.56
2023-03-22T03:22:19.153Z,100547.88
2023-03-22T03:24:56.972Z,100531.31
2023-03-22T03:27:32.370Z,100547.88
2023-03-22T03:30:06.673Z,100551.22
2023-03-22T03:32:41.974Z,100537.38
2023-03-22T03:35:22.526Z,100549.56
2023-03-22T03:37:54.859Z,100545.22
2023-03-22T03:40:33.652Z,100556.47
2023-03-22T03:43:04.460Z,100545.31
2023-03-22T03:45:32.538Z,100543.59
2023-03-22T03:48:03.297Z,100547.91
2023-03-22T03:50:31.519Z,100537.53
2023-03-22T03:52:58.630Z,100543.56
2023-03-22T03:55:27.453Z,100535.91
2023-03-22T03:57:54.664Z,100538.59
2023-03-22T04:00:21.719Z,100527.31
2023-03-22T04:02:48.791Z,100528.25
2023-03-22T04:05:15.955Z,100536.09
2023-03-22T04:07:42.992Z,100538.91
2023-03-22T04:10:10.236Z,100547.50
2023-03-22T04:12:37.393Z,100532.91
2023-03-22T04:15:04.799Z,100536.34
2023-03-22T04:17:32.114Z,100526.81
2023-03-22T04:19:59.686Z,100533.75
2023-03-22T04:22:26.811Z,100536.56
2023-03-22T04:24:53.920Z,100532.09
2023-03-22T04:27:22.349Z,100528.81
2023-03-22T04:29:50.805Z,100526.28
2023-03-22T04:32:23.016Z,100523.63
2023-03-22T04:34:51.339Z,100521.81
2023-03-22T04:37:19.501Z,100515.88
2023-03-22T04:39:46.623Z,100512.38
2023-03-22T04:42:13.766Z,100498.47
2023-03-22T04:44:40.952Z,100505.53
2023-03-22T04:47:08.021Z,100505.47
2023-03-22T04:49:35.218Z,100508.13
2023-03-22T04:52:02.325Z,100507.34
2023-03-22T04:54:29.879Z,100505.63
2023-03-22T04:56:56.865Z,100499.56
2023-03-22T04:59:24.003Z,100503.09
2023-03-22T05:01:51.688Z,100500.38
2023-03-22T05:04:19.275Z,100505.56
2023-03-22T05:06:46.496Z,100486.53
2023-03-22T05:09:14.251Z,100488.28
2023-03-22T05:11:41.721Z,100493.47
2023-03-22T05:14:10.167Z,100489.06
2023-03-22T05:16:40.520Z,100482.06
2023-03-22T05:19:13.940Z,100488.19
2023-03-22T05:21:44.011Z,100495.06
2023-03-22T05:24:11.992Z,100494.13
2023-03-22T05:26:42.379Z,100494.06
2023-03-22T05:29:10.957Z,100488.88
2023-03-22T05:31:38.309Z,100487.97
2023-03-22T05:34:05.484Z,100479.31
2023-03-22T05:36:32.580Z,100476.56
2023-03-22T05:39:00.394Z,100473.16
2023-03-22T05:41:27.512Z,100481.88
2023-03-22T05:43:55.086Z,100480.13
2023-03-22T05:46:22.322Z,100478.38
2023-03-22T05:48:49.482Z,100480.16
2023-03-22T05:51:20.139Z,100480.16
2023-03-22T05:53:48.297Z,100479.31
2023-03-22T05:56:15.687Z,100465.47
2023-03-22T05:58:42.846Z,100467.16
2023-03-22T06:01:16.370Z,100464.47
2023-03-22T06:03:43.473Z,100458.47
2023-03-22T06:06:10.791Z,100467.91
2023-03-22T06:08:39.281Z,100467.13
2023-03-22T06:11:07.657Z,100468.91
2023-03-22T06:13:34.729Z,100474.94
2023-03-22T06:16:03.676Z,100458.63
2023-03-22T06:18:31.599Z,100456.88
2023-03-22T06:20:59.425Z,100467.31
2023-03-22T06:23:26.519Z,100467.28
2023-03-22T06:25:54.060Z,100462.13
2023-03-22T06:28:21.123Z,100470.69
2023-03-22T06:30:48.221Z,100476.78
2023-03-22T06:33:15.376Z,100456.13
2023-03-22T06:35:42.445Z,100473.53
2023-03-22T06:38:09.561Z,100458.94
2023-03-22T06:40:36.667Z,100462.53
2023-03-22T06:43:06.947Z,100463.69
2023-03-22T06:45:35.870Z,100463.78
2023-03-22T06:48:03.040Z,100473.22
2023-03-22T06:50:31.085Z,100470.69
2023-03-22T06:52:58.406Z,100476.81
2023-03-22T06:55:26.359Z,100471.53
2023-03-22T06:57:53.488Z,100480.19
2023-03-22T07:00:20.802Z,100465.63
2023-03-22T07:02:47.919Z,100473.50
2023-03-22T07:05:15.026Z,100481.31
2023-03-22T07:07:42.091Z,100473.63
2023-03-22T07:10:09.653Z,100476.28
2023-03-22T07:12:36.742Z,100472.78
2023-03-22T07:15:04.427Z,100471.06
2023-03-22T07:17:31.500Z,100478.75
2023-03-22T07:19:59.556Z,100469.25
2023-03-22T07:22:27.220Z,100483.03
2023-03-22T07:24:57.837Z,100488.19
2023-03-22T07:27:26.087Z,100481.19
2023-03-22T07:29:53.271Z,100478.59
2023-03-22T07:32:20.569Z,100471.75
2023-03-22T07:34:47.676Z,100458.81
2023-03-22T07:37:15.060Z,100476.22
2023-03-22T07:39:42.198Z,100475.25
2023-03-22T07:42:09.589Z,100457.38
2023-03-22T07:44:36.743Z,100471.13
2023-03-22T07:47:04.002Z,100457.34
2023-03-22T07:49:31.604Z,100470.50
2023-03-22T07:51:59.456Z,100465.22
2023-03-22T07:54:33.730Z,100469.59
2023-03-22T07:57:01.896Z,100474.84
2023-03-22T07:59:29.629Z,100478.25
2023-03-22T08:01:56.766Z,100474.03
2023-03-22T08:04:23.858Z,100475.84
2023-03-22T08:06:51.495Z,100468.97
2023-03-22T08:09:18.727Z,100465.53
2023-03-22T08:11:46.064Z,100471.59
2023-03-22T08:14:13.157Z,100463.88
2023-03-22T08:16:41.648Z,100447.44
2023-03-22T08:19:08.808Z,100471.81
2023-03-22T08:21:36.218Z,100464.06
2023-03-22T08:24:04.886Z,100471.72
2023-03-22T08:26:32.032Z,100469.91
2023-03-22T08:29:00.341Z,100476.78
2023-03-22T08:31:27.501Z,100459.50
2023-03-22T08:33:54.809Z,100465.59
2023-03-22T08:36:25.591Z,100462.94
2023-03-22T08:38:53.074Z,100464.69
2023-03-22T08:41:20.164Z,100468.16
2023-03-22T08:43:47.741Z,100469.91
2023-03-22T08:46:14.856Z,100459.66
2023-03-22T08:48:42.308Z,100460.53
2023-03-22T08:51:09.328Z,100450.13
2023-03-22T08:53:36.511Z,100448.34
2023-03-22T08:56:07.802Z,100449.41
2023-03-22T08:58:35.911Z,100463.19
2023-03-22T09:01:03.127Z,100458.03
2023-03-22T09:03:30.589Z,100460.56
2023-03-22T09:05:57.630Z,100465.78
2023-03-22T09:08:24.749Z,100461.44
2023-03-22T09:10:52.273Z,100464.03
2023-03-22T09:13:20.400Z,100464.78
2023-03-22T09:15:48.211Z,100459.59
2023-03-22T09:18:16.317Z,100460.44
2023-03-22T09:20:44.722Z,100461.44
2023-03-22T09:23:13.040Z,100471.81
2023-03-22T09:25:43.362Z,100456.13
2023-03-22T09:28:10.606Z,100470.81
2023-03-22T09:30:38.343Z,100473.44
2023-03-22T09:33:06.655Z,100477.78
2023-03-22T09:35:34.500Z,100478.59
2023-03-22T09:38:03.751Z,100462.19
2023-03-22T09:40:32.741Z,100466.47
2023-03-22T09:43:07.228Z,100468.91
2023-03-22T09:45:39.646Z,100467.22
2023-03-22T09:48:41.375Z,100461.91
2023-03-22T09:51:23.866Z,100478.97
2023-03-22T09:53:50.987Z,100469.44
2023-03-22T09:56:23.764Z,100452.91
2023-03-22T09:58:55.581Z,100449.50
2023-03-22T10:01:25.843Z,100451.25
2023-03-22T10:03:55.849Z,100448.81
2023-03-22T10:06:26.884Z,100453.94
2023-03-22T10:09:03.774Z,100447.88
2023-03-22T10:11:46.434Z,100450.34
2023-03-22T10:14:27.759Z,100444.25
2023-03-22T10:16:57.349Z,100454.72
2023-03-22T10:19:31.420Z,100444.31
2023-03-22T10:22:01.364Z,100456.34
2023-03-22T10:24:36.581Z,100447.69
2023-03-22T10:27:04.672Z,100452.88
2023-03-22T10:29:39.410Z,100451.03
2023-03-22T10:32:57.504Z,100450.16
2023-03-22T10:35:26.063Z,100441.50
2023-03-22T10:37:56.200Z,100451.06
2023-03-22T10:40:30.665Z,100446.00
2023-03-22T10:43:03.668Z,100444.31
2023-03-22T10:45:34.783Z,100455.38
2023-03-22T10:48:25.598Z,100453.72
2023-03-22T10:50:54.375Z,100458.09
2023-03-22T10:53:30.684Z,100455.31
2023-03-22T10:55:59.305Z,100453.63
2023-03-22T10:58:34.429Z,100458.81
2023-03-22T11:01:10.956Z,100465.69
2023-03-22T11:03:49.250Z,100455.34
2023-03-22T11:06:20.932Z,100434.03
2023-03-22T11:08:53.230Z,100429.75
2023-03-22T11:11:25.578Z,100430.59
2023-03-22T11:14:07.164Z,100421.03
2023-03-22T11:16:45.643Z,100414.22
2023-03-22T11:19:19.088Z,100415.13
2023-03-22T11:21:46.272Z,100433.91
2023-03-22T11:24:15.680Z,100421.88
2023-03-22T11:26:44.891Z,100421.94
2023-03-22T11:29:16.759Z,100425.47
2023-03-22T11:31:55.818Z,100428.13
2023-03-22T11:34:29.292Z,100432.50
2023-03-22T11:37:01.075Z,100444.56
2023-03-22T11:39:30.958Z,100423.84
2023-03-22T11:42:06.315Z,100425.56
2023-03-22T11:44:35.826Z,100431.59
2023-03-22T11:47:04.487Z,100432.50
2023-03-22T11:49:47.346Z,100439.53
2023-03-22T11:52:24.663Z,100439.59
2023-03-22T11:54:54.083Z,100443.88
2023-03-22T11:57:27.465Z,100451.69
2023-03-22T12:00:00.697Z,100451.53
2023-03-22T12:02:31.687Z,100457.66
2023-03-22T12:05:05.441Z,100457.56
2023-03-22T12:07:35.513Z,100458.44
2023-03-22T12:10:24.898Z,100473.88
2023-03-22T12:13:14.194Z,100467.06
2023-03-22T12:15:48.625Z,100454.13
2023-03-22T12:18:36.197Z,100459.41
2023-03-22T12:21:03.659Z,100446.34
2023-03-22T12:23:35.278Z,100439.56
2023-03-22T12:26:21.672Z,100449.09
2023-03-22T12:29:00.717Z,100450.84
2023-03-22T12:31:37.410Z,100450.78
2023-03-22T12:34:16.262Z,100451.69
2023-03-22T12:37:05.262Z,100449.94
2023-03-22T12:39:39.182Z,100457.75
2023-03-22T12:42:50.373Z,100454.31
2023-03-22T12:45:26.893Z,100441.31
2023-03-22T12:48:02.687Z,100440.56
2023-03-22T12:50:38.724Z,100433.72
2023-03-22T12:53:06.582Z,100433.72
2023-03-22T12:55:39.454Z,100434.50
2023-03-22T12:58:08.932Z,100423.25
2023-03-22T13:00:45.757Z,100431.03
2023-03-22T13:03:16.159Z,100429.38
2023-03-22T13:05:45.827Z,100407.66
2023-03-22T13:08:13.455Z,100433.75
2023-03-22T13:10:49.667Z,100441.56
2023-03-22T13:13:23.106Z,100436.38
2023-03-22T13:16:08.473Z,100441.56
2023-03-22T13:18:35.639Z,100439.81
2023-03-22T13:21:21.214Z,100441.38
2023-03-22T13:24:06.434Z,100449.22
2023-03-22T13:26:51.612Z,100438.00
2023-03-22T13:29:27.324Z,100450.97
2023-03-22T13:31:57.949Z,100448.41
2023-03-22T13:34:37.561Z,100438.94
2023-03-22T13:37:22.680Z,100440.72
2023-03-22T13:39:51.988Z,100434.69
2023-03-22T13:42:22.400Z,100426.91
2023-03-22T13:44:57.083Z,100446.88
2023-03-22T13:47:32.540Z,100435.63
2023-03-22T13:50:11.642Z,100434.69
2023-03-22T13:52:53.027Z,100433.81
2023-03-22T13:55:43.430Z,100434.69
2023-03-22T13:58:36.489Z,100426.91
2023-03-22T14:01:14.430Z,100413.06
2023-03-22T14:03:44.056Z,100428.66
2023-03-22T14:06:20.707Z,100436.41
2023-03-22T14:08:51.802Z,100423.50
2023-03-22T14:11:38.007Z,100430.47
2023-03-22T14:14:16.187Z,100420.09
2023-03-22T14:16:50.397Z,100420.16
2023-03-22T14:19:21.935Z,100402.84
